createdAt,value
2022-08-07T00:01:12.778Z,1.80
2022-08-07T00:03:48.373Z,1.80
2022-08-07T00:06:14.897Z,1.90
2022-08-07T00:08:44.358Z,1.87
2022-08-07T00:11:11.214Z,1.90
2022-08-07T00:13:44.694Z,1.80
2022-08-07T00:16:11.577Z,1.80
2022-08-07T00:18:43.741Z,1.80
2022-08-07T00:21:55.344Z,1.90
2022-08-07T00:23:56.844Z,1.90
2022-08-07T00:26:48.814Z,2.00
2022-08-07T00:29:09.385Z,1.90
2022-08-07T00:31:38.118Z,1.90
2022-08-07T00:34:08.976Z,1.90
2022-08-07T00:36:35.715Z,1.97
2022-08-07T00:39:05.035Z,1.80
2022-08-07T00:41:32.437Z,1.90
2022-08-07T00:44:03.623Z,2.00
2022-08-07T00:46:30.335Z,2.00
2022-08-07T00:49:02.572Z,1.90
2022-08-07T00:51:58.465Z,1.93
2022-08-07T00:54:16.058Z,2.00
2022-08-07T00:56:45.981Z,1.90
2022-08-07T00:59:16.262Z,1.80
2022-08-07T01:01:44.401Z,2.10
2022-08-07T01:04:11.327Z,2.17
2022-08-07T01:06:48.109Z,2.00
2022-08-07T01:10:04.635Z,1.97
2022-08-07T01:12:10.078Z,2.20
2022-08-07T01:14:47.847Z,2.13
2022-08-07T01:17:23.301Z,2.10
2022-08-07T01:19:53.889Z,2.13
2022-08-07T01:22:22.800Z,2.10
2022-08-07T01:24:55.548Z,2.10
2022-08-07T01:27:22.241Z,2.10
2022-08-07T01:29:50.606Z,2.20
2022-08-07T01:32:17.291Z,2.20
2022-08-07T01:34:47.454Z,2.30
2022-08-07T01:37:17.316Z,2.10
2022-08-07T01:39:46.891Z,2.20
2022-08-07T01:42:37.175Z,2.30
2022-08-07T01:45:00.955Z,2.20
2022-08-07T01:48:19.277Z,2.20
2022-08-07T01:50:13.585Z,2.10
2022-08-07T01:52:49.759Z,2.20
2022-08-07T01:55:24.079Z,2.30
2022-08-07T01:58:06.444Z,2.20
2022-08-07T02:00:49.076Z,2.20
2022-08-07T02:03:21.964Z,2.30
2022-08-07T02:05:59.605Z,2.30
2022-08-07T02:08:26.972Z,2.30
2022-08-07T02:10:58.096Z,2.30
2022-08-07T02:13:56.906Z,2.40
2022-08-07T02:16:13.519Z,2.30
2022-08-07T02:18:47.111Z,2.20
2022-08-07T02:21:16.112Z,2.40
2022-08-07T02:23:43.588Z,2.20
2022-08-07T02:26:33.149Z,2.40
2022-08-07T02:28:57.713Z,2.30
2022-08-07T02:31:29.081Z,2.30
2022-08-07T02:34:03.950Z,2.20
2022-08-07T02:36:38.126Z,2.20
2022-08-07T02:39:16.804Z,2.30
2022-08-07T02:41:54.781Z,2.30
2022-08-07T02:44:23.614Z,2.27
2022-08-07T02:46:54.517Z,2.20
2022-08-07T02:49:28.768Z,2.30
2022-08-07T02:52:09.810Z,2.33
2022-08-07T02:54:41.147Z,2.33
2022-08-07T02:57:11.281Z,2.30
2022-08-07T02:59:45.401Z,2.40
2022-08-07T03:02:22.363Z,2.40
2022-08-07T03:04:49.526Z,2.40
2022-08-07T03:07:16.857Z,2.37
2022-08-07T03:09:51.976Z,2.50
2022-08-07T03:12:22.427Z,2.30
2022-08-07T03:14:57.186Z,2.37
2022-08-07T03:17:29.489Z,2.30
2022-08-07T03:20:02.679Z,2.30
2022-08-07T03:22:29.724Z,2.50
2022-08-07T03:24:57.260Z,2.50
2022-08-07T03:27:30.286Z,2.33
2022-08-07T03:29:57.969Z,2.50
2022-08-07T03:32:26.631Z,2.40
2022-08-07T03:35:00.951Z,2.50
2022-08-07T03:37:46.108Z,2.50
2022-08-07T03:40:16.589Z,2.33
2022-08-07T03:42:43.507Z,2.40
2022-08-07T03:45:11.075Z,2.40
2022-08-07T03:47:47.759Z,2.43
2022-08-07T03:50:23.180Z,2.70
2022-08-07T03:52:50.389Z,2.50
2022-08-07T03:55:16.977Z,2.60
2022-08-07T03:58:33.427Z,2.50
2022-08-07T04:00:35.330Z,2.47
2022-08-07T04:03:05.261Z,2.50
2022-08-07T04:05:40.509Z,2.53
2022-08-07T04:08:12.653Z,2.60
2022-08-07T04:10:54.116Z,2.57
2022-08-07T04:13:30.083Z,2.50
2022-08-07T04:16:30.128Z,2.70
2022-08-07T04:19:01.505Z,2.47
2022-08-07T04:21:31.128Z,2.50
2022-08-07T04:24:07.233Z,2.60
2022-08-07T04:26:34.223Z,2.60
2022-08-07T04:29:00.504Z,2.70
2022-08-07T04:32:02.125Z,2.50
2022-08-07T04:34:17.106Z,2.47
2022-08-07T04:36:51.506Z,2.63
2022-08-07T04:39:19.981Z,2.70
2022-08-07T04:41:52.402Z,2.50
2022-08-07T04:44:19.252Z,2.60
2022-08-07T04:47:04.503Z,2.60
2022-08-07T04:49:47.359Z,2.57
2022-08-07T04:52:30.811Z,2.80
2022-08-07T04:54:59.784Z,2.70
2022-08-07T04:58:11.958Z,2.77
2022-08-07T05:00:30.699Z,2.67
2022-08-07T05:03:01.098Z,2.60
2022-08-07T05:05:53.799Z,2.73
2022-08-07T05:08:59.960Z,2.70
2022-08-07T05:11:24.361Z,2.73
2022-08-07T05:14:52.768Z,2.60
2022-08-07T05:16:47.546Z,2.70
2022-08-07T05:19:20.418Z,2.70
2022-08-07T05:22:04.627Z,2.50
2022-08-07T05:24:40.338Z,2.90
2022-08-07T05:27:18.419Z,2.53
2022-08-07T05:29:56.532Z,2.80
2022-08-07T05:32:24.775Z,2.60
2022-08-07T05:34:51.526Z,2.90
2022-08-07T05:37:26.181Z,2.70
2022-08-07T05:40:06.324Z,2.80
2022-08-07T05:42:40.001Z,2.50
2022-08-07T05:45:25.794Z,2.53
2022-08-07T05:48:01.761Z,2.70
2022-08-07T05:50:30.547Z,2.70
2022-08-07T05:52:57.203Z,2.70
2022-08-07T05:55:23.861Z,2.70
2022-08-07T05:58:10.431Z,2.70
2022-08-07T06:00:38.421Z,2.60
2022-08-07T06:03:06.679Z,2.70
2022-08-07T06:05:33.809Z,2.60
2022-08-07T06:08:13.204Z,2.60
2022-08-07T06:10:47.335Z,2.50
2022-08-07T06:13:18.522Z,2.60
2022-08-07T06:15:49.902Z,2.70
2022-08-07T06:18:17.296Z,2.60
2022-08-07T06:20:50.436Z,2.50
2022-08-07T06:24:38.124Z,2.60
2022-08-07T06:26:18.003Z,2.50
2022-08-07T06:28:54.680Z,2.40
2022-08-07T06:31:21.206Z,2.50
2022-08-07T06:34:04.688Z,2.53
2022-08-07T06:36:35.153Z,2.50
2022-08-07T06:40:13.514Z,2.60
2022-08-07T06:42:01.833Z,2.50
2022-08-07T06:44:33.955Z,2.50
2022-08-07T06:47:10.315Z,2.40
2022-08-07T06:49:52.449Z,2.40
2022-08-07T06:52:31.256Z,2.40
2022-08-07T06:55:32.148Z,2.50
2022-08-07T06:57:56.319Z,2.40
2022-08-07T07:00:23.996Z,2.30
2022-08-07T07:02:54.639Z,2.30
2022-08-07T07:06:03.164Z,2.20
2022-08-07T07:08:18.801Z,2.20
2022-08-07T07:10:56.730Z,2.30
2022-08-07T07:13:55.742Z,2.30
2022-08-07T07:16:19.571Z,2.20
2022-08-07T07:18:50.105Z,2.20
2022-08-07T07:21:22.327Z,2.20
2022-08-07T07:24:07.062Z,2.20
2022-08-07T07:26:40.517Z,2.20
2022-08-07T07:29:40.219Z,2.30
2022-08-07T07:32:01.918Z,2.30
2022-08-07T07:34:31.883Z,2.13
2022-08-07T07:37:14.375Z,2.27
2022-08-07T07:39:54.954Z,2.20
2022-08-07T07:42:25.873Z,2.20
2022-08-07T07:45:04.709Z,2.20
2022-08-07T07:47:51.911Z,2.20
2022-08-07T07:50:34.879Z,2.17
2022-08-07T07:53:05.528Z,2.00
2022-08-07T07:55:54.874Z,2.20
2022-08-07T07:58:29.660Z,1.97
2022-08-07T08:00:57.467Z,2.20
2022-08-07T08:04:10.435Z,2.00
2022-08-07T08:06:13.145Z,2.00
2022-08-07T08:08:41.814Z,1.90
2022-08-07T08:11:16.191Z,2.00
2022-08-07T08:13:54.780Z,2.00
2022-08-07T08:16:25.312Z,1.97
2022-08-07T08:19:17.977Z,1.90
2022-08-07T08:22:17.461Z,1.90
2022-08-07T08:25:18.232Z,1.90
2022-08-07T08:27:56.996Z,1.90
2022-08-07T08:30:27.641Z,1.90
2022-08-07T08:32:56.772Z,1.90
2022-08-07T08:35:25.590Z,1.90
2022-08-07T08:38:00.697Z,1.80
2022-08-07T08:40:29.409Z,2.00
2022-08-07T08:43:03.431Z,1.90
2022-08-07T08:45:41.917Z,1.80
2022-08-07T08:48:38.374Z,1.73
2022-08-07T08:51:14.576Z,1.80
2022-08-07T08:53:57.811Z,1.80
2022-08-07T08:56:28.916Z,1.70
2022-08-07T08:59:16.489Z,1.80
2022-08-07T09:01:49.138Z,1.80
2022-08-07T09:04:15.900Z,1.70
2022-08-07T09:06:53.472Z,1.67
2022-08-07T09:09:43.524Z,1.70
2022-08-07T09:12:30.488Z,1.60
2022-08-07T09:16:20.166Z,1.70
2022-08-07T09:18:07.218Z,1.70
2022-08-07T09:21:01.383Z,1.60
2022-08-07T09:24:31.219Z,1.60
2022-08-07T09:26:13.943Z,1.60
2022-08-07T09:30:00.763Z,1.50
2022-08-07T09:31:48.587Z,1.60
2022-08-07T09:34:39.091Z,1.60
2022-08-07T09:37:12.703Z,1.50
2022-08-07T09:39:54.794Z,1.60
2022-08-07T09:42:33.937Z,1.50
2022-08-07T09:47:50.517Z,1.50
2022-08-07T09:48:05.190Z,1.40
2022-08-07T09:50:54.098Z,1.40
2022-08-07T09:53:22.477Z,1.40
2022-08-07T09:56:03.326Z,1.40
2022-08-07T09:58:53.614Z,1.40
2022-08-07T10:01:52.374Z,1.40
2022-08-07T10:04:32.422Z,1.30
2022-08-07T10:07:25.606Z,1.30
2022-08-07T10:10:06.935Z,1.30
2022-08-07T10:12:41.905Z,1.30
2022-08-07T10:15:37.776Z,1.20
2022-08-07T10:18:20.572Z,1.20
2022-08-07T10:21:19.960Z,1.30
2022-08-07T10:24:04.844Z,1.30
2022-08-07T10:26:44.213Z,1.20
2022-08-07T10:29:21.120Z,1.20
2022-08-07T10:31:50.762Z,1.20
2022-08-07T10:34:32.208Z,1.20
2022-08-07T10:37:17.606Z,1.20
2022-08-07T10:40:02.824Z,1.20
2022-08-07T10:42:36.846Z,1.20
2022-08-07T10:45:03.966Z,1.10
2022-08-07T10:47:53.581Z,1.10
2022-08-07T10:50:34.028Z,1.10
2022-08-07T10:53:07.985Z,1.10
2022-08-07T10:55:40.498Z,1.10
2022-08-07T10:58:12.817Z,1.10
2022-08-07T11:01:02.631Z,1.10
2022-08-07T11:03:52.842Z,1.00
2022-08-07T11:06:26.750Z,1.00
2022-08-07T11:09:04.063Z,1.00
2022-08-07T11:11:51.772Z,1.00
2022-08-07T11:14:45.763Z,1.00
2022-08-07T11:17:43.282Z,1.00
2022-08-07T11:20:24.407Z,1.00
2022-08-07T11:22:54.175Z,1.00
2022-08-07T11:25:27.936Z,0.90
2022-08-07T11:28:02.717Z,1.00
2022-08-07T11:30:54.405Z,0.90
2022-08-07T11:33:59.496Z,0.90
2022-08-07T11:36:43.588Z,0.80
2022-08-07T11:39:19.576Z,0.80
2022-08-07T11:42:01.613Z,0.73
2022-08-07T11:44:29.738Z,0.70
2022-08-07T11:47:13.784Z,0.70
2022-08-07T11:50:31.896Z,0.67
2022-08-07T11:53:01.757Z,0.50
2022-08-07T11:56:09.450Z,0.40
2022-08-07T11:58:42.258Z,0.20
2022-08-07T12:01:24.787Z,0.10
2022-08-07T12:04:01.692Z,0.00
2022-08-07T12:06:39.716Z,0.00
2022-08-07T12:09:07.493Z,0.00
2022-08-07T12:12:09.597Z,0.00
2022-08-07T12:14:31.178Z,0.00
2022-08-07T12:17:01.727Z,0.00
2022-08-07T12:19:56.531Z,0.00
2022-08-07T12:22:56.219Z,0.00
2022-08-07T12:26:22.096Z,0.00
2022-08-07T12:28:53.053Z,0.00
2022-08-07T12:32:01.441Z,0.00
2022-08-07T12:34:27.866Z,0.00
2022-08-07T12:36:55.519Z,0.10
2022-08-07T12:39:44.049Z,0.00
2022-08-07T12:42:13.086Z,0.00
2022-08-07T12:44:44.896Z,0.00
2022-08-07T12:47:30.598Z,0.00
2022-08-07T12:50:04.726Z,0.00
2022-08-07T12:52:34.408Z,0.00
2022-08-07T12:55:05.676Z,0.00
2022-08-07T12:57:59.227Z,0.00
2022-08-07T13:00:32.494Z,0.00
2022-08-07T13:03:13.054Z,0.00
2022-08-07T13:06:02.708Z,0.03
2022-08-07T13:08:38.601Z,0.00
2022-08-07T13:11:16.404Z,0.00
2022-08-07T13:13:50.047Z,0.00
2022-08-07T13:16:36.752Z,0.00
2022-08-07T13:19:21.795Z,0.00
2022-08-07T13:22:06.160Z,0.52
2022-08-07T13:24:53.934Z,0.00
2022-08-07T13:27:24.719Z,0.00
2022-08-07T13:30:19.274Z,0.00
2022-08-07T13:33:46.068Z,0.00
2022-08-07T13:36:06.189Z,0.00
2022-08-07T13:38:49.603Z,0.00
2022-08-07T13:41:29.265Z,0.00
2022-08-07T13:43:56.506Z,0.00
2022-08-07T13:46:32.897Z,0.00
2022-08-07T13:49:05.103Z,0.00
2022-08-07T13:52:04.756Z,0.00
2022-08-07T13:54:30.287Z,0.00
2022-08-07T13:57:00.495Z,0.00
2022-08-07T13:59:31.600Z,0.00
2022-08-07T14:02:05.310Z,0.00
2022-08-07T14:04:36.021Z,0.00
2022-08-07T14:07:05.533Z,0.00
2022-08-07T14:10:01.325Z,0.00
2022-08-07T14:12:41.548Z,0.98
2022-08-07T14:15:16.734Z,0.00
2022-08-07T14:18:15.909Z,0.00
2022-08-07T14:20:43.262Z,0.00
2022-08-07T14:23:59.416Z,0.00
2022-08-07T14:26:30.453Z,0.00
2022-08-07T14:29:04.455Z,0.00
2022-08-07T14:31:42.235Z,0.00
2022-08-07T14:34:11.726Z,0.00
2022-08-07T14:36:47.066Z,0.00
2022-08-07T14:40:15.516Z,0.00
2022-08-07T14:42:18.466Z,0.00
2022-08-07T14:44:49.381Z,0.00
2022-08-07T14:47:18.907Z,0.00
2022-08-07T14:49:58.480Z,0.00
2022-08-07T14:58:02.812Z,0.00
2022-08-07T15:00:31.683Z,0.00
2022-08-07T15:02:59.343Z,0.00
2022-08-07T15:05:27.545Z,0.00
2022-08-07T15:07:58.392Z,0.00
2022-08-07T15:10:29.686Z,0.00
2022-08-07T15:12:59.747Z,0.00
2022-08-07T15:15:33.646Z,0.00
2022-08-07T15:20:59.798Z,0.00
2022-08-07T15:25:14.956Z,0.00
2022-08-07T15:26:22.312Z,0.00
2022-08-07T15:28:58.467Z,0.00
2022-08-07T15:32:00.552Z,0.00
2022-08-07T15:34:15.067Z,0.00
2022-08-07T15:37:02.685Z,0.00
2022-08-07T15:42:46.252Z,0.00
2022-08-07T15:45:19.384Z,0.00
2022-08-07T15:48:00.939Z,0.00
2022-08-07T15:51:08.702Z,0.00
2022-08-07T15:53:51.771Z,0.00
2022-08-07T15:56:20.890Z,0.00
2022-08-07T15:58:57.760Z,0.00
2022-08-07T16:01:39.062Z,0.00
2022-08-07T16:04:14.651Z,0.00
2022-08-07T16:06:50.799Z,0.00
2022-08-07T16:09:22.746Z,0.00
2022-08-07T16:12:02.300Z,0.00
2022-08-07T16:14:48.588Z,0.00
2022-08-07T16:18:02.888Z,0.00
2022-08-07T16:20:33.494Z,0.00
2022-08-07T16:23:52.956Z,0.00
2022-08-07T16:26:32.717Z,0.00
2022-08-07T16:30:06.824Z,0.00
2022-08-07T16:32:34.486Z,0.00
2022-08-07T16:35:56.806Z,0.00
2022-08-07T16:38:18.842Z,0.00
2022-08-07T16:41:04.409Z,0.00
2022-08-07T16:44:04.343Z,0.00
2022-08-07T16:47:05.785Z,0.07
2022-08-07T16:50:28.056Z,0.00
2022-08-07T16:52:57.521Z,0.00
2022-08-07T16:55:47.144Z,0.00
2022-08-07T16:58:54.333Z,0.00
2022-08-07T17:01:22.265Z,0.00
2022-08-07T17:04:10.111Z,0.00
2022-08-07T17:07:02.872Z,0.00
2022-08-07T17:10:06.850Z,0.00
2022-08-07T17:12:34.118Z,0.00
2022-08-07T17:15:15.587Z,0.77
2022-08-07T17:17:48.108Z,0.00
2022-08-07T17:20:20.688Z,0.00
2022-08-07T17:22:54.112Z,0.00
2022-08-07T17:25:47.905Z,0.00
2022-08-07T17:28:20.121Z,0.00
2022-08-07T17:30:58.126Z,0.00
2022-08-07T17:34:10.286Z,0.00
2022-08-07T17:36:26.071Z,0.00
2022-08-07T17:38:54.502Z,0.00
2022-08-07T17:42:01.628Z,0.00
2022-08-07T17:44:49.954Z,0.00
2022-08-07T17:47:38.155Z,0.00
2022-08-07T17:50:20.387Z,0.00
2022-08-07T17:52:51.428Z,0.00
2022-08-07T17:56:01.026Z,0.00
2022-08-07T17:58:08.911Z,0.03
2022-08-07T18:00:49.006Z,0.00
2022-08-07T18:03:20.635Z,0.10
2022-08-07T18:06:02.319Z,0.00
2022-08-07T18:08:32.095Z,0.00
2022-08-07T18:12:06.280Z,0.00
2022-08-07T18:14:01.832Z,0.10
2022-08-07T18:16:33.470Z,0.10
2022-08-07T18:21:10.962Z,0.10
2022-08-07T18:22:16.312Z,0.10
2022-08-07T18:24:51.264Z,0.10
2022-08-07T18:27:24.236Z,0.10
2022-08-07T18:30:08.443Z,0.10
2022-08-07T18:33:11.013Z,0.10
2022-08-07T18:36:08.219Z,0.10
2022-08-07T18:40:04.833Z,0.10
2022-08-07T18:41:58.962Z,0.10
2022-08-07T18:45:44.320Z,0.10
2022-08-07T18:47:44.599Z,0.20
2022-08-07T18:50:40.622Z,0.20
2022-08-07T18:53:21.959Z,0.20
2022-08-07T18:56:12.551Z,0.20
2022-08-07T18:58:42.587Z,0.13
2022-08-07T19:02:19.154Z,0.20
2022-08-07T19:04:28.119Z,0.20
2022-08-07T19:07:08.260Z,0.20
2022-08-07T19:09:55.615Z,0.20
2022-08-07T19:12:49.129Z,0.20
2022-08-07T19:16:03.577Z,0.20
2022-08-07T19:18:35.060Z,0.27
2022-08-07T19:21:44.176Z,0.20
2022-08-07T19:24:02.277Z,0.30
2022-08-07T19:26:55.521Z,0.30
2022-08-07T19:31:02.237Z,0.20
2022-08-07T19:32:18.695Z,0.20
2022-08-07T19:34:55.138Z,0.20
2022-08-07T19:37:22.612Z,0.30
2022-08-07T19:39:57.481Z,0.30
2022-08-07T19:42:30.367Z,0.27
2022-08-07T19:45:00.544Z,0.37
2022-08-07T19:47:37.596Z,0.30
2022-08-07T19:50:43.173Z,0.30
2022-08-07T19:52:58.755Z,0.30
2022-08-07T19:55:26.027Z,0.30
2022-08-07T19:58:15.337Z,0.30
2022-08-07T20:00:53.942Z,0.30
2022-08-07T20:03:33.642Z,0.40
2022-08-07T20:06:04.393Z,0.40
2022-08-07T20:08:33.668Z,0.40
2022-08-07T20:11:03.651Z,0.40
2022-08-07T20:13:46.587Z,0.40
2022-08-07T20:16:35.584Z,0.40
2022-08-07T20:19:05.269Z,0.40
2022-08-07T20:21:42.305Z,0.40
2022-08-07T20:24:14.684Z,0.50
2022-08-07T20:26:50.294Z,0.40
2022-08-07T20:29:48.618Z,0.40
2022-08-07T20:32:11.408Z,0.40
2022-08-07T20:34:51.580Z,0.50
2022-08-07T20:37:23.024Z,0.50
2022-08-07T20:40:03.834Z,0.50
2022-08-07T20:42:31.763Z,0.47
2022-08-07T20:45:00.959Z,0.50
2022-08-07T20:47:56.303Z,0.50
2022-08-07T20:50:15.608Z,0.50
2022-08-07T20:52:52.234Z,0.50
2022-08-07T20:55:20.705Z,0.50
2022-08-07T20:58:02.488Z,0.50
2022-08-07T21:00:42.846Z,0.50
2022-08-07T21:03:11.722Z,0.50
2022-08-07T21:05:51.318Z,0.50
2022-08-07T21:08:37.986Z,0.60
2022-08-07T21:11:10.837Z,0.60
2022-08-07T21:13:57.358Z,0.60
2022-08-07T21:16:33.270Z,0.60
2022-08-07T21:19:00.009Z,0.60
2022-08-07T21:21:29.792Z,0.60
2022-08-07T21:24:07.279Z,0.60
2022-08-07T21:27:01.279Z,0.60
2022-08-07T21:29:58.099Z,0.60
2022-08-07T21:32:48.391Z,0.60
2022-08-07T21:35:34.827Z,0.70
2022-08-07T21:38:28.126Z,0.67
2022-08-07T21:40:59.531Z,0.70
2022-08-07T21:43:55.550Z,0.70
2022-08-07T21:46:32.232Z,0.70
2022-08-07T21:49:06.055Z,0.70
2022-08-07T21:51:56.434Z,0.70
2022-08-07T21:54:46.078Z,0.73
2022-08-07T21:57:31.434Z,0.70
2022-08-07T22:00:07.502Z,0.70
2022-08-07T22:02:45.764Z,0.70
2022-08-07T22:05:44.019Z,0.70
2022-08-07T22:08:02.943Z,0.80
2022-08-07T22:10:32.858Z,0.73
2022-08-07T22:13:03.369Z,0.80
2022-08-07T22:16:38.900Z,0.80
2022-08-07T22:18:43.399Z,0.90
2022-08-07T22:21:19.282Z,0.90
2022-08-07T22:23:56.900Z,0.90
2022-08-07T22:26:28.288Z,0.90
2022-08-07T22:29:08.740Z,0.90
2022-08-07T22:31:59.140Z,0.90
2022-08-07T22:34:49.768Z,0.90
2022-08-07T22:37:19.832Z,0.90
2022-08-07T22:39:53.602Z,1.00
2022-08-07T22:42:25.592Z,0.90
2022-08-07T22:44:59.086Z,0.90
2022-08-07T22:47:58.393Z,0.90
2022-08-07T22:50:44.693Z,1.00
2022-08-07T22:53:17.954Z,1.00
2022-08-07T22:55:50.293Z,0.93
2022-08-07T22:58:35.042Z,1.00
2022-08-07T23:01:10.879Z,1.00
2022-08-07T23:03:58.047Z,1.00
2022-08-07T23:06:26.123Z,1.00
2022-08-07T23:08:58.545Z,1.00
2022-08-07T23:11:46.265Z,1.00
2022-08-07T23:14:16.732Z,1.00
2022-08-07T23:17:02.000Z,1.00
2022-08-07T23:20:02.900Z,1.00
2022-08-07T23:22:34.856Z,1.10
2022-08-07T23:25:01.399Z,1.00
2022-08-07T23:28:21.758Z,1.10
2022-08-07T23:30:42.507Z,1.10
2022-08-07T23:34:34.648Z,1.10
2022-08-07T23:36:29.873Z,1.10
2022-08-07T23:39:08.699Z,1.10
2022-08-07T23:41:47.710Z,1.20
2022-08-07T23:44:29.469Z,1.10
2022-08-07T23:47:05.380Z,1.10
2022-08-07T23:49:51.099Z,1.10
2022-08-07T23:53:01.972Z,1.10
2022-08-07T23:55:52.382Z,1.20
2022-08-07T23:58:18.499Z,1.20
